Time;durP1;ratioP1;P1;durP2;ratioP2;P2;SDS_P1;SDS_P2;PMS_P1;PMS_P2;Temp;Humidity;BMP_temperature;BMP_pressure;BME280_temperature;BME280_humidity;BME280_pressure;Samples;Min_cycle;Max_cycle;Signal;HPM_P1;HPM_P2
2021/12/02 00:00:39;;;;;;;5.60;1.65;;;;;;;0.42;100.00;98172.81;7396378;19;20469;-49
2021/12/02 00:03:09;;;;;;;9.38;1.48;;;;;;;0.44;100.00;98196.59;7400448;19;20122;-47
2021/12/02 00:05:39;;;;;;;8.57;1.00;;;;;;;0.43;100.00;98194.84;7396378;19;20196;-51
2021/12/02 00:08:09;;;;;;;7.10;1.60;;;;;;;0.44;100.00;98210.94;7398627;19;20183;-46
2021/12/02 00:10:40;;;;;;;3.38;0.93;;;;;;;0.41;100.00;98221.81;7395504;19;20246;-47
2021/12/02 00:13:13;;;;;;;4.88;2.22;;;;;;;0.43;100.00;98219.34;7400229;19;20127;-46
2021/12/02 00:15:48;;;;;;;4.43;1.10;;;;;;;0.48;100.00;98238.16;7395531;19;20190;-52
2021/12/02 00:21:03;;;;;;;6.82;1.20;;;;;;;0.44;100.00;98243.91;7398429;19;20126;-50
2021/12/02 00:21:23;;;;;;;11.40;1.33;;;;;;;0.44;100.00;98256.59;7395472;19;20262;-46
2021/12/02 00:23:56;;;;;;;5.20;0.80;;;;;;;0.48;100.00;98248.31;7399927;19;20119;-52
2021/12/02 00:26:25;;;;;;;4.85;1.20;;;;;;;0.45;100.00;98271.03;7394349;19;20640;-48
2021/12/02 00:28:59;;;;;;;4.53;0.98;;;;;;;0.46;100.00;98275.31;7399892;19;20127;-53
2021/12/02 00:31:31;;;;;;;7.82;0.90;;;;;;;0.48;100.00;98274.56;7395223;19;20200;-49
2021/12/02 00:34:02;;;;;;;3.45;1.00;;;;;;;0.47;100.00;98292.25;7399638;19;20131;-47
2021/12/02 00:36:36;;;;;;;2.60;0.75;;;;;;;0.47;100.00;98266.88;7393829;19;20190;-53
2021/12/02 00:39:08;;;;;;;5.32;1.00;;;;;;;0.47;100.00;98282.13;7399141;19;20119;-51
2021/12/02 00:41:37;;;;;;;3.58;1.10;;;;;;;0.44;100.00;98292.13;7397669;19;20196;-51
2021/12/02 00:44:11;;;;;;;4.30;1.10;;;;;;;0.44;100.00;98287.03;7405307;19;20142;-52
2021/12/02 00:46:41;;;;;;;11.25;0.98;;;;;;;0.47;100.00;98295.66;7400612;19;20203;-50
2021/12/02 00:49:13;;;;;;;4.45;1.00;;;;;;;0.50;100.00;98302.53;7407422;19;20187;-53
2021/12/02 00:51:44;;;;;;;4.20;0.60;;;;;;;0.49;100.00;98298.25;7402356;19;20182;-55
2021/12/02 00:54:14;;;;;;;5.13;1.52;;;;;;;0.46;100.00;98303.22;7406765;19;20134;-47
2021/12/02 00:56:44;;;;;;;5.22;1.05;;;;;;;0.44;100.00;98308.22;7399867;19;20198;-47
2021/12/02 00:59:16;;;;;;;5.68;1.15;;;;;;;0.46;100.00;98305.75;7406476;19;20123;-54
2021/12/02 01:01:48;;;;;;;8.63;1.23;;;;;;;0.44;100.00;98317.50;7401711;19;20186;-52
2021/12/02 01:04:22;;;;;;;3.63;0.80;;;;;;;0.47;100.00;98330.31;7406189;19;20130;-48
2021/12/02 01:06:52;;;;;;;4.60;0.95;;;;;;;0.48;100.00;98329.53;7399964;19;20643;-47
2021/12/02 01:09:22;;;;;;;1.70;0.80;;;;;;;0.47;100.00;98348.09;7405956;19;20123;-49
2021/12/02 01:11:54;;;;;;;4.85;1.25;;;;;;;0.45;100.00;98357.31;7401775;19;20582;-46
2021/12/02 01:14:26;;;;;;;3.13;1.00;;;;;;;0.43;100.00;98366.50;7405819;19;20509;-48
2021/12/02 01:16:56;;;;;;;2.45;1.25;;;;;;;0.38;100.00;98369.72;7403767;19;20594;-46
2021/12/02 01:19:26;;;;;;;4.50;1.40;;;;;;;0.39;100.00;98366.38;7405751;19;20122;-49
2021/12/02 01:21:56;;;;;;;2.60;0.80;;;;;;;0.34;100.00;98370.38;7404775;19;20238;-50
2021/12/02 01:24:25;;;;;;;5.55;1.00;;;;;;;0.31;100.00;98390.53;7406087;19;20209;-46
2021/12/02 01:26:56;;;;;;;1.63;0.60;;;;;;;0.29;100.00;98401.44;7402262;19;20241;-50
2021/12/02 01:29:28;;;;;;;5.70;1.10;;;;;;;0.28;100.00;98400.56;7405523;19;20119;-48
2021/12/02 01:32:04;;;;;;;5.75;1.40;;;;;;;0.25;100.00;98401.28;7408669;19;20246;-46
2021/12/02 01:34:34;;;;;;;2.65;0.65;;;;;;;0.26;100.00;98415.69;7401296;19;20143;-48
2021/12/02 01:37:04;;;;;;;6.03;1.05;;;;;;;0.23;100.00;98419.75;7402296;19;20165;-47
2021/12/02 01:39:34;;;;;;;3.85;0.80;;;;;;;0.22;100.00;98412.97;7400813;19;20123;-46
2021/12/02 01:42:03;;;;;;;10.15;0.80;;;;;;;0.25;100.00;98425.75;7404284;19;20127;-46
2021/12/02 01:44:36;;;;;;;6.22;1.30;;;;;;;0.23;100.00;98425.72;7400939;19;20127;-45
2021/12/02 01:47:07;;;;;;;2.63;0.75;;;;;;;0.20;100.00;98440.78;7402101;19;20165;-47
2021/12/02 01:49:43;;;;;;;4.43;1.02;;;;;;;0.15;100.00;98441.38;7400921;19;20142;-51
2021/12/02 01:52:14;;;;;;;4.53;0.80;;;;;;;0.15;100.00;98447.31;7407860;19;20127;-51
2021/12/02 01:54:46;;;;;;;4.63;0.73;;;;;;;0.16;100.00;98449.06;7397556;19;20199;-49
2021/12/02 01:57:30;;;;;;;4.35;0.80;;;;;;;0.11;100.00;98448.84;7406162;19;20234;-45
2021/12/02 02:00:09;;;;;;;3.38;1.45;;;;;;;0.13;100.00;98453.97;7400213;19;20190;-48
2021/12/02 02:02:40;;;;;;;8.30;1.10;;;;;;;0.08;100.00;98458.84;7404954;19;20590;-47
2021/12/02 02:05:12;;;;;;;1.60;0.60;;;;;;;0.06;100.00;98468.03;7399802;19;20183;-47
2021/12/02 02:07:51;;;;;;;7.80;1.40;;;;;;;0.04;100.00;98479.78;7400377;19;20230;-49
2021/12/02 02:10:21;;;;;;;4.72;1.02;;;;;;;0.03;100.00;98462.84;7399707;19;20216;-51
2021/12/02 02:12:51;;;;;;;4.07;0.85;;;;;;;0.02;100.00;98486.47;7403701;19;20179;-46
2021/12/02 02:15:23;;;;;;;12.18;2.13;;;;;;;-0.01;100.00;98481.22;7399149;19;20448;-48
2021/12/02 02:17:56;;;;;;;1.95;0.60;;;;;;;-0.02;100.00;98494.69;7401771;19;20214;-48
2021/12/02 02:20:38;;;;;;;3.80;1.00;;;;;;;-0.02;100.00;98485.44;7399414;19;20193;-46
2021/12/02 02:23:11;;;;;;;2.58;0.60;;;;;;;-0.06;100.00;98510.59;7403752;19;20119;-48
2021/12/02 02:25:42;;;;;;;2.42;0.82;;;;;;;-0.07;100.00;98503.75;7398714;19;20210;-46
2021/12/02 02:28:11;;;;;;;4.80;0.85;;;;;;;-0.04;100.00;98506.44;7401210;19;20566;-46
2021/12/02 02:30:41;;;;;;;7.60;1.50;;;;;;;-0.09;100.00;98518.91;7398998;19;20241;-48
2021/12/02 02:33:13;;;;;;;5.15;1.20;;;;;;;-0.05;100.00;98513.16;7404128;19;20415;-52
2021/12/02 02:35:45;;;;;;;6.93;0.90;;;;;;;-0.07;100.00;98506.28;7398284;19;20211;-45
2021/12/02 02:38:16;;;;;;;3.38;0.90;;;;;;;-0.09;100.00;98530.69;7400391;19;20420;-51
2021/12/02 02:40:48;;;;;;;7.00;1.40;;;;;;;-0.12;100.00;98544.09;7398328;19;20234;-46
2021/12/02 02:43:22;;;;;;;2.72;0.75;;;;;;;-0.13;100.00;98547.44;7402946;19;20133;-47
2021/12/02 02:45:52;;;;;;;8.85;1.02;;;;;;;-0.11;100.00;98550.06;7398082;19;20564;-50
2021/12/02 02:48:22;;;;;;;7.47;0.85;;;;;;;-0.10;100.00;98549.25;7402888;19;20124;-47
2021/12/02 02:50:54;;;;;;;9.98;1.35;;;;;;;-0.08;100.00;98545.13;7398109;19;20572;-46
2021/12/02 02:53:26;;;;;;;2.50;0.60;;;;;;;-0.12;100.00;98541.56;7402793;19;20171;-48
2021/12/02 02:56:06;;;;;;;1.83;0.73;;;;;;;-0.08;100.00;98550.19;7397422;19;20197;-45
2021/12/02 02:58:46;;;;;;;5.40;0.88;;;;;;;-0.09;100.00;98554.41;7401822;19;20123;-45
2021/12/02 03:01:29;;;;;;;3.75;0.80;;;;;;;-0.16;100.00;98545.63;7398000;19;20206;-45
2021/12/02 03:04:04;;;;;;;4.65;0.90;;;;;;;-0.14;100.00;98550.78;7402425;19;20127;-51
2021/12/02 03:06:43;;;;;;;5.72;0.90;;;;;;;-0.12;100.00;98566.06;7395429;19;20295;-48
2021/12/02 03:09:18;;;;;;;5.53;1.00;;;;;;;-0.08;100.00;98565.41;7402307;19;20127;-47
2021/12/02 03:11:50;;;;;;;5.57;0.88;;;;;;;-0.07;100.00;98579.81;7397821;19;20584;-47
2021/12/02 03:14:28;;;;;;;2.35;0.70;;;;;;;-0.13;100.00;98575.31;7402122;19;20166;-46
2021/12/02 03:16:54;;;;;;;4.50;0.50;;;;;;;-0.16;100.00;98577.69;7399656;19;20198;-50
2021/12/02 03:19:25;;;;;;;3.88;0.85;;;;;;;-0.06;100.00;98584.13;7404988;19;20135;-45
2021/12/02 03:21:59;;;;;;;2.50;0.75;;;;;;;-0.16;100.00;98588.72;7400703;19;20508;-45
2021/12/02 03:24:28;;;;;;;3.40;0.80;;;;;;;-0.17;100.00;98597.13;7402532;19;20131;-53
2021/12/02 03:26:58;;;;;;;8.68;0.65;;;;;;;-0.24;100.00;98594.19;7398852;19;20212;-47
2021/12/02 03:29:27;;;;;;;5.63;1.00;;;;;;;-0.19;100.00;98603.78;7401622;19;20127;-51
2021/12/02 03:31:57;;;;;;;3.85;0.80;;;;;;;-0.21;100.00;98601.97;7400977;19;20184;-48
2021/12/02 03:34:27;;;;;;;4.07;1.00;;;;;;;-0.17;100.00;98616.50;7401384;19;20116;-53
2021/12/02 03:36:59;;;;;;;2.72;0.70;;;;;;;-0.25;100.00;98616.16;7398795;19;21026;-48
2021/12/02 03:39:29;;;;;;;2.60;0.85;;;;;;;-0.21;100.00;98618.03;7399942;19;20133;-47
2021/12/02 03:42:01;;;;;;;1.70;0.70;;;;;;;-0.21;100.00;98625.63;7400456;19;20189;-54
2021/12/02 03:44:30;;;;;;;2.90;0.85;;;;;;;-0.26;100.00;98614.38;7397218;19;20127;-50
2021/12/02 03:47:00;;;;;;;3.53;0.70;;;;;;;-0.28;100.00;98631.19;7400530;19;20214;-54
2021/12/02 03:49:30;;;;;;;3.95;1.33;;;;;;;-0.32;100.00;98621.69;7397169;19;20135;-50
2021/12/02 03:52:02;;;;;;;4.30;0.90;;;;;;;-0.33;100.00;98625.00;7400116;19;20141;-53
2021/12/02 03:54:32;;;;;;;1.70;0.60;;;;;;;-0.42;100.00;98631.34;7396693;19;20524;-47
2021/12/02 03:57:01;;;;;;;2.80;0.70;;;;;;;-0.35;100.00;98635.09;7402455;19;20226;-46
2021/12/02 03:59:32;;;;;;;5.22;1.02;;;;;;;-0.44;100.00;98632.94;7395884;19;20143;-54
2021/12/02 04:02:02;;;;;;;6.07;0.68;;;;;;;-0.47;100.00;98637.84;7399657;19;20119;-47
2021/12/02 04:04:31;;;;;;;2.63;0.60;;;;;;;-0.46;100.00;98639.59;7400684;19;20127;-50
2021/12/02 04:07:04;;;;;;;5.55;0.77;;;;;;;-0.36;100.00;98640.94;7397776;19;20487;-48
2021/12/02 04:09:39;;;;;;;6.38;0.90;;;;;;;-0.45;100.00;98643.84;7396310;19;20122;-47
2021/12/02 04:12:14;;;;;;;6.47;1.00;;;;;;;-0.44;100.00;98648.16;7399705;19;20390;-49
2021/12/02 04:14:49;;;;;;;6.07;1.10;;;;;;;-0.55;100.00;98656.84;7396307;19;20182;-48
2021/12/02 04:17:28;;;;;;;7.93;1.05;;;;;;;-0.57;100.00;98671.97;7395656;19;20154;-47
2021/12/02 04:19:58;;;;;;;5.68;1.40;;;;;;;-0.53;100.00;98660.31;7395001;19;20255;-46
2021/12/02 04:22:30;;;;;;;3.17;1.10;;;;;;;-0.56;100.00;98661.03;7399915;19;20119;-46
2021/12/02 04:24:59;;;;;;;3.40;1.45;;;;;;;-0.58;100.00;98667.69;7396164;19;20576;-46
2021/12/02 04:27:29;;;;;;;6.03;1.00;;;;;;;-0.57;100.00;98666.91;7397704;19;20222;-45
2021/12/02 04:29:58;;;;;;;1.92;0.75;;;;;;;-0.59;100.00;98676.09;7395415;19;20207;-48
2021/12/02 04:32:28;;;;;;;6.72;1.13;;;;;;;-0.57;100.00;98676.16;7399592;19;20179;-47
2021/12/02 04:34:58;;;;;;;4.55;0.90;;;;;;;-0.54;100.00;98686.47;7395096;19;20182;-46
2021/12/02 04:37:30;;;;;;;2.55;0.80;;;;;;;-0.61;100.00;98685.25;7397643;19;20214;-47
2021/12/02 04:40:00;;;;;;;5.57;1.00;;;;;;;-0.51;100.00;98690.81;7394347;19;20249;-46
2021/12/02 04:42:29;;;;;;;2.80;0.80;;;;;;;-0.56;100.00;98705.78;7399245;19;20127;-45
2021/12/02 04:44:59;;;;;;;3.88;0.70;;;;;;;-0.57;100.00;98706.56;7394627;19;20546;-52
2021/12/02 04:47:28;;;;;;;6.93;1.20;;;;;;;-0.59;100.00;98718.28;7397215;19;20222;-46
2021/12/02 04:49:58;;;;;;;5.40;0.82;;;;;;;-0.73;100.00;98720.94;7394805;19;20245;-45
2021/12/02 04:52:30;;;;;;;1.80;0.80;;;;;;;-0.77;100.00;98721.56;7398978;19;20119;-46
2021/12/02 04:54:59;;;;;;;8.18;1.00;;;;;;;-0.64;100.00;98732.34;7394458;19;20186;-51
2021/12/02 04:57:29;;;;;;;6.50;1.10;;;;;;;-0.62;100.00;98721.50;7396875;19;20248;-46
2021/12/02 04:59:58;;;;;;;3.28;1.02;;;;;;;-0.64;100.00;98737.41;7394019;19;20190;-45
2021/12/02 05:02:28;;;;;;;4.15;1.00;;;;;;;-0.64;100.00;98748.44;7398681;19;20130;-48
2021/12/02 05:04:58;;;;;;;3.05;0.90;;;;;;;-0.55;100.00;98750.59;7393995;19;20615;-48
2021/12/02 05:07:30;;;;;;;3.97;0.80;;;;;;;-0.58;100.00;98745.34;7396603;19;20176;-47
2021/12/02 05:09:59;;;;;;;3.70;0.80;;;;;;;-0.66;100.00;98756.75;7394236;19;20246;-46
2021/12/02 05:12:29;;;;;;;4.50;1.00;;;;;;;-0.58;100.00;98758.00;7398340;19;20120;-46
2021/12/02 05:14:58;;;;;;;6.10;1.00;;;;;;;-0.59;100.00;98759.69;7396740;19;20246;-48
2021/12/02 05:17:28;;;;;;;4.00;1.42;;;;;;;-0.70;100.00;98766.72;7396083;19;20169;-46
2021/12/02 05:19:57;;;;;;;4.70;0.85;;;;;;;-0.74;100.00;98769.88;7393734;19;20637;-48
2021/12/02 05:22:29;;;;;;;5.72;1.00;;;;;;;-0.73;100.00;98771.59;7398188;19;20119;-49
2021/12/02 05:24:59;;;;;;;6.90;1.90;;;;;;;-0.65;100.00;98776.22;7393974;19;21104;-47
2021/12/02 05:27:28;;;;;;;12.30;1.00;;;;;;;-0.60;100.00;98772.28;7395891;19;20161;-46
2021/12/02 05:29:58;;;;;;;3.65;0.90;;;;;;;-0.57;100.00;98775.84;7399067;19;20205;-47
2021/12/02 05:32:30;;;;;;;8.82;1.58;;;;;;;-0.63;100.00;98783.09;7405405;19;20131;-48
2021/12/02 05:34:59;;;;;;;5.80;0.90;;;;;;;-0.61;100.00;98786.59;7398894;19;20193;-48
2021/12/02 05:37:31;;;;;;;18.92;1.15;;;;;;;-0.65;100.00;98788.88;7402572;19;20553;-47
2021/12/02 05:40:01;;;;;;;4.93;1.23;;;;;;;-0.66;100.00;98792.19;7400475;19;20197;-49
2021/12/02 05:42:30;;;;;;;14.32;1.05;;;;;;;-0.60;100.00;98800.13;7404937;19;20130;-50
2021/12/02 05:45:00;;;;;;;2.08;0.85;;;;;;;-0.61;100.00;98808.53;7400384;19;20194;-51
2021/12/02 05:47:30;;;;;;;7.43;1.30;;;;;;;-0.58;100.00;98816.28;7402308;19;20159;-46
2021/12/02 05:49:59;;;;;;;5.97;1.15;;;;;;;-0.56;100.00;98824.88;7403543;19;20250;-46
2021/12/02 05:52:31;;;;;;;5.45;1.13;;;;;;;-0.10;100.00;98825.59;7404784;19;20121;-48
2021/12/02 05:55:01;;;;;;;19.52;7.15;;;;;;;-0.13;100.00;98818.72;7402179;19;20189;-46
2021/12/02 05:57:31;;;;;;;27.80;12.90;;;;;;;0.39;100.00;98832.38;7401977;19;20210;-48
2021/12/02 06:00:00;;;;;;;13.75;4.45;;;;;;;0.77;100.00;98840.22;7399625;19;20234;-48
2021/12/02 06:02:30;;;;;;;58.58;25.55;;;;;;;0.43;100.00;98853.69;7404408;19;20120;-49
2021/12/02 06:04:59;;;;;;;67.25;28.05;;;;;;;0.93;100.00;98859.63;7400058;19;20218;-47
2021/12/02 06:07:32;;;;;;;8.57;2.22;;;;;;;0.24;100.00;98868.84;7401632;19;20159;-47
2021/12/02 06:10:01;;;;;;;5.75;1.67;;;;;;;0.46;100.00;98869.97;7399783;19;20207;-45
2021/12/02 06:12:31;;;;;;;8.10;1.63;;;;;;;0.44;100.00;98873.19;7403997;19;20186;-46
2021/12/02 06:15:00;;;;;;;6.82;1.30;;;;;;;-0.01;100.00;98881.88;7399535;19;20497;-49
2021/12/02 06:17:30;;;;;;;4.18;1.13;;;;;;;-0.25;100.00;98891.56;7404669;19;20163;-46
2021/12/02 06:19:59;;;;;;;2.72;0.80;;;;;;;-0.35;100.00;98892.72;7399140;19;20470;-44
2021/12/02 06:22:28;;;;;;;11.20;1.25;;;;;;;-0.41;100.00;98898.34;7403774;19;20137;-46
2021/12/02 06:25:17;;;;;;;7.32;1.27;;;;;;;-0.46;100.00;98905.66;7399351;19;20204;-46
2021/12/02 06:27:50;;;;;;;3.97;1.27;;;;;;;-0.43;100.00;98903.31;7401592;19;20154;-45
2021/12/02 06:30:22;;;;;;;6.03;1.38;;;;;;;-0.47;100.00;98908.97;7399275;19;20183;-46
2021/12/02 06:32:51;;;;;;;8.30;1.00;;;;;;;-0.48;100.00;98914.84;7403354;19;20123;-48
2021/12/02 06:35:21;;;;;;;6.82;1.30;;;;;;;-0.49;100.00;98922.34;7397883;19;20493;-51
2021/12/02 06:37:52;;;;;;;4.20;1.45;;;;;;;-0.57;100.00;98934.56;7401299;19;20541;-48
2021/12/02 06:40:25;;;;;;;10.23;1.10;;;;;;;-0.59;100.00;98941.22;7396402;19;20250;-51
2021/12/02 06:42:55;;;;;;;4.20;1.40;;;;;;;-0.71;100.00;98944.78;7402922;19;20557;-53
2021/12/02 06:45:24;;;;;;;5.90;1.23;;;;;;;-0.71;100.00;98951.53;7397609;19;20190;-52
2021/12/02 06:47:58;;;;;;;4.85;1.20;;;;;;;-0.74;100.00;98946.28;7400931;19;20179;-49
2021/12/02 06:50:29;;;;;;;6.03;1.35;;;;;;;-0.72;100.00;98954.88;7398836;19;20183;-47
2021/12/02 06:52:59;;;;;;;8.60;1.48;;;;;;;-0.71;100.00;98957.47;7402640;19;20119;-53
2021/12/02 06:55:31;;;;;;;6.18;1.65;;;;;;;-0.76;100.00;98963.06;7397262;19;20245;-50
2021/12/02 06:58:00;;;;;;;5.00;1.50;;;;;;;-0.82;100.00;98968.66;7400669;19;20222;-54
2021/12/02 07:00:30;;;;;;;6.03;1.90;;;;;;;-0.85;100.00;98971.88;7397774;19;20186;-54
2021/12/02 07:03:01;;;;;;;7.40;1.40;;;;;;;-0.92;100.00;98979.00;7402331;19;20417;-53
2021/12/02 07:05:33;;;;;;;6.15;1.90;;;;;;;-0.89;100.00;98976.66;7397078;19;20209;-52
2021/12/02 07:08:04;;;;;;;9.93;1.45;;;;;;;-0.94;100.00;98983.13;7400090;19;20155;-50
2021/12/02 07:10:36;;;;;;;8.48;1.67;;;;;;;-0.94;100.00;98983.97;7397747;19;20246;-48
2021/12/02 07:13:06;;;;;;;7.88;1.90;;;;;;;-0.91;100.00;98990.88;7401981;19;20175;-51
2021/12/02 07:15:41;;;;;;;7.97;1.77;;;;;;;-0.98;100.00;98988.00;7396509;19;20234;-48
2021/12/02 07:18:15;;;;;;;6.13;1.60;;;;;;;-0.96;100.00;98991.47;7401138;19;20165;-48
2021/12/02 07:20:46;;;;;;;4.95;1.88;;;;;;;-0.99;100.00;98995.50;7397062;19;20190;-47
2021/12/02 07:23:17;;;;;;;16.40;2.20;;;;;;;-0.99;100.00;99003.97;7401492;19;20119;-46
2021/12/02 07:25:50;;;;;;;11.20;2.20;;;;;;;-0.83;100.00;99008.28;7396638;19;20186;-47
2021/12/02 07:28:21;;;;;;;7.60;1.70;;;;;;;-0.85;100.00;99008.97;7401559;19;20127;-47
2021/12/02 07:30:53;;;;;;;7.57;1.48;;;;;;;-0.84;100.00;99008.19;7397339;19;20182;-48
2021/12/02 07:33:23;;;;;;;8.98;1.88;;;;;;;-0.89;100.00;99017.16;7401084;19;20146;-45
2021/12/02 07:35:53;;;;;;;6.10;1.95;;;;;;;-0.78;100.00;99021.22;7396371;19;20250;-44
2021/12/02 07:38:24;;;;;;;3.80;1.60;;;;;;;-0.90;100.00;99021.38;7401151;19;20175;-46
2021/12/02 07:40:56;;;;;;;9.57;1.60;;;;;;;-0.76;100.00;99029.81;7398156;19;20182;-45
2021/12/02 07:43:25;;;;;;;6.85;1.60;;;;;;;-0.76;100.00;99039.94;7400578;19;20171;-44
2021/12/02 07:45:57;;;;;;;6.93;1.85;;;;;;;-0.85;100.00;99030.13;7395814;19;20245;-44
2021/12/02 07:48:28;;;;;;;10.57;1.60;;;;;;;-0.79;100.00;99039.72;7400943;19;20123;-45
2021/12/02 07:50:59;;;;;;;11.32;2.08;;;;;;;-0.70;100.00;99049.53;7399262;19;20186;-44
2021/12/02 07:53:29;;;;;;;9.70;3.30;;;;;;;0.51;100.00;99046.19;7400176;19;20119;-46
2021/12/02 07:56:05;;;;;;;15.55;4.70;;;;;;;1.06;100.00;99049.06;7395565;19;20250;-44
2021/12/02 07:58:35;;;;;;;8.85;2.08;;;;;;;0.12;100.00;99071.97;7401356;19;20183;-47
2021/12/02 08:01:05;;;;;;;23.30;10.88;;;;;;;0.32;100.00;99064.63;7395780;19;20186;-46
2021/12/02 08:03:35;;;;;;;64.90;26.73;;;;;;;0.64;100.00;99070.59;7404295;19;20131;-44
2021/12/02 08:06:04;;;;;;;10.85;4.43;;;;;;;0.86;100.00;99084.44;7395304;19;20242;-49
2021/12/02 08:08:34;;;;;;;36.35;14.30;;;;;;;0.84;100.00;99078.41;7399845;19;20553;-47
2021/12/02 08:11:07;;;;;;;2.88;1.45;;;;;;;0.03;100.00;99096.81;7396487;19;20322;-46
2021/12/02 08:13:37;;;;;;;10.48;4.07;;;;;;;-0.28;100.00;99089.97;7399882;19;20137;-47
2021/12/02 08:16:08;;;;;;;5.95;1.63;;;;;;;0.21;100.00;99093.59;7395103;19;20183;-44
2021/12/02 08:18:38;;;;;;;7.43;2.33;;;;;;;0.40;100.00;99103.09;7399986;19;20167;-46
2021/12/02 08:21:08;;;;;;;5.70;2.53;;;;;;;0.34;100.00;99102.75;7395503;19;20190;-46
2021/12/02 08:23:37;;;;;;;5.10;1.50;;;;;;;0.22;100.00;99113.09;7399591;19;20374;-46
2021/12/02 08:26:12;;;;;;;38.65;16.50;;;;;;;1.02;100.00;99114.06;7394461;19;20182;-47
2021/12/02 08:28:41;;;;;;;33.83;13.02;;;;;;;1.05;100.00;99123.53;7399715;19;20202;-49
2021/12/02 08:31:11;;;;;;;3.20;1.55;;;;;;;0.36;100.00;99141.81;7395302;19;20182;-45
2021/12/02 08:33:40;;;;;;;11.77;4.57;;;;;;;0.27;100.00;99142.16;7399195;19;20175;-52
2021/12/02 08:36:10;;;;;;;9.95;1.90;;;;;;;0.11;100.00;99148.88;7394210;19;20191;-48
2021/12/02 08:38:40;;;;;;;6.75;1.55;;;;;;;0.07;100.00;99151.13;7399369;19;20130;-44
2021/12/02 08:41:13;;;;;;;5.10;1.80;;;;;;;0.05;100.00;99151.03;7394834;19;20194;-44
2021/12/02 08:43:42;;;;;;;6.60;1.70;;;;;;;-0.01;100.00;99169.31;7398932;19;20141;-50
2021/12/02 08:46:12;;;;;;;16.92;4.10;;;;;;;-0.06;100.00;99162.25;7394017;19;20540;-47
2021/12/02 08:48:41;;;;;;;31.70;2.05;;;;;;;-0.04;100.00;99170.81;7398272;19;20716;-47
2021/12/02 08:51:11;;;;;;;7.35;1.45;;;;;;;-0.14;100.00;99175.31;7395112;19;20186;-46
2021/12/02 08:53:40;;;;;;;15.35;1.40;;;;;;;-0.16;100.00;99176.91;7398604;19;20130;-46
2021/12/02 08:56:12;;;;;;;6.40;1.60;;;;;;;-0.21;100.00;99183.34;7393844;19;20188;-47
2021/12/02 08:58:42;;;;;;;7.80;2.45;;;;;;;0.02;100.00;99193.09;7398902;19;20130;-47
2021/12/02 09:01:11;;;;;;;8.50;1.85;;;;;;;-0.05;100.00;99191.88;7394473;19;20249;-47
2021/12/02 09:03:41;;;;;;;13.52;2.00;;;;;;;-0.08;100.00;99196.75;7399991;19;20115;-44
2021/12/02 09:06:12;;;;;;;6.10;1.35;;;;;;;-0.05;100.00;99202.03;7400557;19;20186;-47
2021/12/02 09:08:43;;;;;;;5.80;2.35;;;;;;;-0.04;100.00;99201.25;7405800;19;20123;-44
2021/12/02 09:11:15;;;;;;;15.38;4.35;;;;;;;-0.08;100.00;99209.44;7401736;19;20190;-45
2021/12/02 09:13:45;;;;;;;8.15;2.55;;;;;;;-0.01;100.00;99211.56;7405899;19;20514;-44
2021/12/02 09:16:14;;;;;;;6.43;2.30;;;;;;;-0.01;100.00;99209.00;7400622;19;20193;-45
2021/12/02 09:18:44;;;;;;;8.80;2.95;;;;;;;0.05;100.00;99221.19;7405589;19;20136;-45
2021/12/02 09:21:13;;;;;;;9.57;1.92;;;;;;;0.12;100.00;99223.31;7404165;19;20636;-46
2021/12/02 09:23:43;;;;;;;4.32;1.48;;;;;;;0.20;100.00;99221.22;7402725;19;20202;-45
2021/12/02 09:26:15;;;;;;;6.90;2.15;;;;;;;0.16;100.00;99224.38;7400001;19;20191;-48
2021/12/02 09:28:52;;;;;;;8.70;1.77;;;;;;;0.18;100.00;99233.81;7405596;19;20389;-47
2021/12/02 09:31:22;;;;;;;3.75;1.10;;;;;;;0.18;100.00;99227.84;7401035;19;20182;-46
2021/12/02 09:33:52;;;;;;;4.65;1.45;;;;;;;0.24;100.00;99238.38;7405221;19;20391;-46
2021/12/02 09:36:22;;;;;;;7.00;1.40;;;;;;;0.27;100.00;99243.63;7399602;19;20194;-46
2021/12/02 09:38:51;;;;;;;7.28;2.30;;;;;;;0.32;100.00;99242.25;7405011;19;20145;-49
2021/12/02 09:41:23;;;;;;;6.82;2.05;;;;;;;0.47;100.00;99249.00;7400714;19;20460;-45
2021/12/02 09:43:53;;;;;;;5.07;1.50;;;;;;;0.35;100.00;99256.75;7402357;19;20127;-52
2021/12/02 09:46:22;;;;;;;3.13;1.17;;;;;;;0.37;100.00;99253.53;7399217;19;20190;-47
2021/12/02 09:48:52;;;;;;;8.88;1.88;;;;;;;0.34;100.00;99255.91;7404900;19;20119;-48
2021/12/02 09:51:24;;;;;;;4.68;1.52;;;;;;;0.41;100.00;99252.03;7400795;19;20471;-50
2021/12/02 09:54:16;;;;;;;8.73;1.52;;;;;;;0.34;100.00;99255.91;7404797;19;20130;-50
2021/12/02 09:56:51;;;;;;;5.50;1.40;;;;;;;0.42;100.00;99263.06;7401807;19;20196;-52
2021/12/02 09:59:29;;;;;;;11.50;1.67;;;;;;;0.40;100.00;99266.41;7404438;19;20178;-50
2021/12/02 10:02:03;;;;;;;11.70;1.38;;;;;;;0.48;100.00;99271.03;7403160;19;20194;-47
2021/12/02 10:04:37;;;;;;;6.07;1.50;;;;;;;0.48;100.00;99283.72;7400637;19;20153;-49
2021/12/02 10:07:11;;;;;;;10.85;1.55;;;;;;;0.51;100.00;99269.56;7405938;19;20159;-50
2021/12/02 10:09:44;;;;;;;7.10;1.70;;;;;;;0.50;100.00;99277.06;7402665;19;20187;-50
2021/12/02 10:12:19;;;;;;;11.65;1.90;;;;;;;0.49;100.00;99272.78;7403712;19;20135;-53
2021/12/02 10:14:53;;;;;;;12.40;1.70;;;;;;;0.50;100.00;99277.06;7398685;19;20178;-48
2021/12/02 10:17:28;;;;;;;6.25;1.63;;;;;;;0.46;100.00;99280.25;7400847;19;20419;-48
2021/12/02 10:20:11;;;;;;;6.38;1.27;;;;;;;0.43;100.00;99280.03;7399636;19;20683;-52
2021/12/02 10:22:40;;;;;;;8.98;1.52;;;;;;;0.51;100.00;99289.00;7403035;19;20183;-54
2021/12/02 10:25:10;;;;;;;10.35;1.60;;;;;;;0.61;100.00;99296.34;7399485;19;20318;-44
2021/12/02 10:28:02;;;;;;;7.78;1.63;;;;;;;0.63;100.00;99301.53;7400964;19;20159;-44
2021/12/02 10:30:32;;;;;;;7.70;1.65;;;;;;;0.59;100.00;99308.09;7399586;19;20256;-46
2021/12/02 10:33:01;;;;;;;7.10;2.67;;;;;;;0.70;100.00;99300.19;7403515;19;20119;-45
2021/12/02 10:35:40;;;;;;;6.53;1.60;;;;;;;0.78;100.00;99304.94;7398238;19;20198;-45
2021/12/02 10:38:09;;;;;;;8.00;1.52;;;;;;;1.14;100.00;99314.59;7400973;19;20158;-46
2021/12/02 10:40:39;;;;;;;3.65;1.67;;;;;;;1.69;100.00;99310.78;7399237;19;20202;-45
2021/12/02 10:43:11;;;;;;;20.10;8.32;;;;;;;1.61;100.00;99317.13;7401983;19;20140;-45
2021/12/02 10:45:41;;;;;;;10.67;3.80;;;;;;;1.83;100.00;99329.34;7397838;19;20246;-44
2021/12/02 10:48:10;;;;;;;6.88;2.50;;;;;;;1.19;100.00;99333.50;7400851;19;20418;-45
2021/12/02 10:50:40;;;;;;;9.95;1.83;;;;;;;1.11;100.00;99324.56;7398744;19;20275;-49
2021/12/02 10:53:10;;;;;;;9.55;4.10;;;;;;;0.99;100.00;99344.19;7402940;19;20127;-45
2021/12/02 10:55:39;;;;;;;8.45;3.08;;;;;;;1.20;100.00;99342.00;7397477;19;20246;-44
2021/12/02 10:58:11;;;;;;;8.15;2.25;;;;;;;1.19;100.00;99341.13;7400599;19;20162;-46
2021/12/02 11:00:46;;;;;;;14.07;2.08;;;;;;;1.01;100.00;99348.56;7398289;19;20447;-46
2021/12/02 11:03:21;;;;;;;12.88;4.00;;;;;;;1.26;100.00;99344.00;7401242;19;20373;-51
2021/12/02 11:05:52;;;;;;;4.90;1.80;;;;;;;1.20;100.00;99347.97;7397106;19;20630;-46
2021/12/02 11:08:28;;;;;;;9.15;2.75;;;;;;;1.23;100.00;99359.09;7401923;19;20122;-47
2021/12/02 11:10:57;;;;;;;6.47;2.03;;;;;;;1.10;100.00;99357.50;7397850;19;20190;-45
2021/12/02 11:13:31;;;;;;;6.50;1.50;;;;;;;1.10;100.00;99370.19;7401822;19;20510;-45
2021/12/02 11:16:00;;;;;;;6.80;1.98;;;;;;;1.16;100.00;99368.00;7396956;19;20797;-47
2021/12/02 11:18:34;;;;;;;5.45;1.92;;;;;;;1.09;100.00;99366.81;7402023;19;20120;-44
2021/12/02 11:21:04;;;;;;;5.43;1.75;;;;;;;0.90;100.00;99370.81;7397696;19;20190;-46
2021/12/02 11:23:43;;;;;;;8.07;1.77;;;;;;;1.14;100.00;99370.50;7400320;19;20194;-46
2021/12/02 11:26:18;;;;;;;8.05;2.30;;;;;;;1.30;100.00;99381.53;7397861;19;20190;-47
2021/12/02 11:28:50;;;;;;;7.53;2.55;;;;;;;1.24;100.00;99378.63;7401458;19;20429;-47
2021/12/02 11:31:22;;;;;;;3.72;1.90;;;;;;;1.14;100.00;99378.13;7397380;19;20193;-46
2021/12/02 11:33:52;;;;;;;8.25;2.22;;;;;;;1.17;100.00;99382.47;7401165;19;20127;-45
2021/12/02 11:36:24;;;;;;;3.33;1.53;;;;;;;1.28;100.00;99390.72;7395864;19;20631;-44
2021/12/02 11:38:55;;;;;;;6.43;2.00;;;;;;;1.12;100.00;99388.97;7401730;19;20403;-50
2021/12/02 11:41:26;;;;;;;12.57;2.38;;;;;;;1.34;100.00;99386.84;7396633;19;20486;-49
2021/12/02 11:43:58;;;;;;;4.85;1.58;;;;;;;1.24;100.00;99396.41;7399812;19;20127;-44
2021/12/02 11:46:28;;;;;;;5.25;1.80;;;;;;;1.19;100.00;99399.56;7395554;19;20249;-48